sensor_id;sensor_type;location;lat;lon;timestamp;pressure;altitude;pressure_sealevel;temperature;humidity
31911;BME280;18457;52.432;16.914;2023-04-05T00:01:47;101205.66;;;3.43;65.49
31911;BME280;18457;52.432;16.914;2023-04-05T00:04:20;101210.41;;;3.50;65.94
31911;BME280;18457;52.432;16.914;2023-04-05T00:06:52;101205.54;;;3.56;65.07
31911;BME280;18457;52.432;16.914;2023-04-05T00:09:24;101210.11;;;3.63;64.66
31911;BME280;18457;52.432;16.914;2023-04-05T00:11:56;101207.99;;;3.65;64.23
31911;BME280;18457;52.432;16.914;2023-04-05T00:14:28;101199.25;;;3.76;64.58
31911;BME280;18457;52.432;16.914;2023-04-05T00:17:00;101201.79;;;3.78;65.10
31911;BME280;18457;52.432;16.914;2023-04-05T00:19:32;101204.06;;;3.65;64.62
31911;BME280;18457;52.432;16.914;2023-04-05T00:22:06;101206.50;;;3.61;64.92
31911;BME280;18457;52.432;16.914;2023-04-05T00:24:40;101205.29;;;3.53;65.13
31911;BME280;18457;52.432;16.914;2023-04-05T00:27:13;101203.77;;;3.58;63.99
31911;BME280;18457;52.432;16.914;2023-04-05T00:29:45;101194.11;;;3.69;63.78
31911;BME280;18457;52.432;16.914;2023-04-05T00:32:16;101195.83;;;3.64;64.94
31911;BME280;18457;52.432;16.914;2023-04-05T00:34:49;101189.49;;;3.70;65.36
31911;BME280;18457;52.432;16.914;2023-04-05T00:37:21;101187.56;;;3.72;64.52
31911;BME280;18457;52.432;16.914;2023-04-05T00:39:53;101186.67;;;3.62;64.32
31911;BME280;18457;52.432;16.914;2023-04-05T00:42:27;101181.48;;;3.70;64.68
31911;BME280;18457;52.432;16.914;2023-04-05T00:44:58;101178.30;;;3.86;64.51
31911;BME280;18457;52.432;16.914;2023-04-05T00:47:30;101173.98;;;3.94;63.10
31911;BME280;18457;52.432;16.914;2023-04-05T00:50:03;101175.83;;;3.97;61.89
31911;BME280;18457;52.432;16.914;2023-04-05T00:52:36;101170.71;;;3.91;62.72
31911;BME280;18457;52.432;16.914;2023-04-05T00:55:10;101167.40;;;3.74;63.75
31911;BME280;18457;52.432;16.914;2023-04-05T00:57:42;101161.59;;;3.67;63.50
31911;BME280;18457;52.432;16.914;2023-04-05T01:00:15;101160.55;;;3.59;63.45
31911;BME280;18457;52.432;16.914;2023-04-05T01:02:51;101152.48;;;3.56;63.32
31911;BME280;18457;52.432;16.914;2023-04-05T01:05:33;101153.52;;;3.55;62.71
31911;BME280;18457;52.432;16.914;2023-04-05T01:08:11;101148.55;;;3.56;62.48
31911;BME280;18457;52.432;16.914;2023-04-05T01:10:45;101146.51;;;3.63;62.24
31911;BME280;18457;52.432;16.914;2023-04-05T01:13:19;101142.10;;;3.54;62.86
31911;BME280;18457;52.432;16.914;2023-04-05T01:15:51;101141.41;;;3.45;63.27
31911;BME280;18457;52.432;16.914;2023-04-05T01:18:23;101142.29;;;3.44;63.61
31911;BME280;18457;52.432;16.914;2023-04-05T01:20:58;101143.11;;;3.51;64.00
31911;BME280;18457;52.432;16.914;2023-04-05T01:23:40;101142.35;;;3.60;64.44
31911;BME280;18457;52.432;16.914;2023-04-05T01:26:47;101141.13;;;3.63;64.96
31911;BME280;18457;52.432;16.914;2023-04-05T01:29:53;101133.88;;;3.55;65.46
31911;BME280;18457;52.432;16.914;2023-04-05T01:32:45;101130.29;;;3.33;66.69
31911;BME280;18457;52.432;16.914;2023-04-05T01:35:23;101129.70;;;3.19;66.77
31911;BME280;18457;52.432;16.914;2023-04-05T01:38:01;101124.00;;;3.09;67.83
31911;BME280;18457;52.432;16.914;2023-04-05T01:40:36;101121.56;;;3.13;67.32
31911;BME280;18457;52.432;16.914;2023-04-05T01:43:14;101125.57;;;3.07;67.63
31911;BME280;18457;52.432;16.914;2023-04-05T01:45:46;101119.45;;;2.95;67.61
31911;BME280;18457;52.432;16.914;2023-04-05T01:48:18;101120.55;;;2.77;67.07
31911;BME280;18457;52.432;16.914;2023-04-05T01:50:50;101124.65;;;2.68;67.23
31911;BME280;18457;52.432;16.914;2023-04-05T01:53:22;101126.59;;;2.66;66.44
31911;BME280;18457;52.432;16.914;2023-04-05T01:55:58;101132.58;;;2.72;65.27
31911;BME280;18457;52.432;16.914;2023-04-05T01:58:30;101125.56;;;2.78;65.28
31911;BME280;18457;52.432;16.914;2023-04-05T02:01:01;101122.77;;;2.91;65.22
31911;BME280;18457;52.432;16.914;2023-04-05T02:03:33;101123.45;;;2.89;65.72
31911;BME280;18457;52.432;16.914;2023-04-05T02:06:06;101119.02;;;2.90;65.84
31911;BME280;18457;52.432;16.914;2023-04-05T02:08:40;101114.83;;;2.76;66.43
31911;BME280;18457;52.432;16.914;2023-04-05T02:11:13;101115.98;;;2.72;66.64
31911;BME280;18457;52.432;16.914;2023-04-05T02:13:45;101118.20;;;2.76;66.67
31911;BME280;18457;52.432;16.914;2023-04-05T02:16:16;101115.47;;;2.72;67.23
31911;BME280;18457;52.432;16.914;2023-04-05T02:18:48;101109.73;;;2.61;67.99
31911;BME280;18457;52.432;16.914;2023-04-05T02:21:20;101108.84;;;2.61;67.57
31911;BME280;18457;52.432;16.914;2023-04-05T02:23:52;101108.31;;;2.62;67.60
31911;BME280;18457;52.432;16.914;2023-04-05T02:26:25;101107.47;;;2.65;67.32
31911;BME280;18457;52.432;16.914;2023-04-05T02:28:57;101110.52;;;2.56;68.42
31911;BME280;18457;52.432;16.914;2023-04-05T02:31:28;101106.17;;;2.62;69.13
31911;BME280;18457;52.432;16.914;2023-04-05T02:34:01;101104.80;;;2.64;69.22
31911;BME280;18457;52.432;16.914;2023-04-05T02:36:34;101106.29;;;2.58;69.55
31911;BME280;18457;52.432;16.914;2023-04-05T02:39:06;101103.93;;;2.47;70.39
31911;BME280;18457;52.432;16.914;2023-04-05T02:41:39;101100.38;;;2.31;70.53
31911;BME280;18457;52.432;16.914;2023-04-05T02:44:13;101098.51;;;2.26;70.94
31911;BME280;18457;52.432;16.914;2023-04-05T02:46:45;101091.05;;;2.36;70.81
31911;BME280;18457;52.432;16.914;2023-04-05T02:49:17;101087.86;;;2.47;70.42
31911;BME280;18457;52.432;16.914;2023-04-05T02:51:48;101093.45;;;2.31;71.99
31911;BME280;18457;52.432;16.914;2023-04-05T02:54:21;101082.90;;;2.30;71.96
31911;BME280;18457;52.432;16.914;2023-04-05T02:56:54;101083.95;;;2.29;72.24
31911;BME280;18457;52.432;16.914;2023-04-05T02:59:25;101077.96;;;2.24;71.90
31911;BME280;18457;52.432;16.914;2023-04-05T03:01:59;101083.66;;;2.24;71.82
31911;BME280;18457;52.432;16.914;2023-04-05T03:04:30;101079.36;;;2.22;71.92
31911;BME280;18457;52.432;16.914;2023-04-05T03:07:05;101079.50;;;2.21;72.45
31911;BME280;18457;52.432;16.914;2023-04-05T03:09:40;101076.98;;;2.20;72.04
31911;BME280;18457;52.432;16.914;2023-04-05T03:12:13;101074.15;;;2.21;72.04
31911;BME280;18457;52.432;16.914;2023-04-05T03:14:46;101074.52;;;2.13;72.29
31911;BME280;18457;52.432;16.914;2023-04-05T03:17:19;101072.86;;;2.02;73.03
31911;BME280;18457;52.432;16.914;2023-04-05T03:19:59;101071.07;;;2.01;72.67
31911;BME280;18457;52.432;16.914;2023-04-05T03:22:32;101069.80;;;2.00;73.06
31911;BME280;18457;52.432;16.914;2023-04-05T03:25:05;101073.39;;;1.85;74.05
31911;BME280;18457;52.432;16.914;2023-04-05T03:27:43;101068.23;;;1.93;73.33
31911;BME280;18457;52.432;16.914;2023-04-05T03:30:18;101068.36;;;1.91;73.40
31911;BME280;18457;52.432;16.914;2023-04-05T03:32:55;101065.28;;;1.89;73.57
31911;BME280;18457;52.432;16.914;2023-04-05T03:35:38;101064.90;;;1.88;73.45
31911;BME280;18457;52.432;16.914;2023-04-05T03:38:11;101069.36;;;1.96;73.78
31911;BME280;18457;52.432;16.914;2023-04-05T03:40:49;101069.34;;;1.87;74.31
31911;BME280;18457;52.432;16.914;2023-04-05T03:43:22;101076.52;;;1.74;74.86
31911;BME280;18457;52.432;16.914;2023-04-05T03:45:54;101073.06;;;1.54;74.91
31911;BME280;18457;52.432;16.914;2023-04-05T03:48:29;101072.96;;;1.50;75.54
31911;BME280;18457;52.432;16.914;2023-04-05T03:51:01;101068.93;;;1.61;75.99
31911;BME280;18457;52.432;16.914;2023-04-05T03:53:32;101069.13;;;1.62;76.30
31911;BME280;18457;52.432;16.914;2023-04-05T03:56:05;101067.78;;;1.57;76.40
31911;BME280;18457;52.432;16.914;2023-04-05T03:58:43;101065.79;;;1.56;76.99
31911;BME280;18457;52.432;16.914;2023-04-05T04:01:15;101064.46;;;1.60;76.93
31911;BME280;18457;52.432;16.914;2023-04-05T04:03:48;101060.66;;;1.57;76.83
31911;BME280;18457;52.432;16.914;2023-04-05T04:06:20;101058.35;;;1.57;77.26
31911;BME280;18457;52.432;16.914;2023-04-05T04:08:52;101053.42;;;1.68;76.79
31911;BME280;18457;52.432;16.914;2023-04-05T04:11:24;101053.30;;;1.78;76.42
31911;BME280;18457;52.432;16.914;2023-04-05T04:13:55;101052.52;;;1.75;75.97
31911;BME280;18457;52.432;16.914;2023-04-05T04:16:38;101051.71;;;1.88;74.17
31911;BME280;18457;52.432;16.914;2023-04-05T04:19:31;101055.58;;;2.02;71.82
31911;BME280;18457;52.432;16.914;2023-04-05T04:22:18;101053.99;;;2.11;70.93
31911;BME280;18457;52.432;16.914;2023-04-05T04:24:51;101059.58;;;2.14;72.49
31911;BME280;18457;52.432;16.914;2023-04-05T04:27:45;101059.58;;;2.14;72.34
31911;BME280;18457;52.432;16.914;2023-04-05T04:30:38;101061.45;;;2.19;71.09
31911;BME280;18457;52.432;16.914;2023-04-05T04:33:27;101061.05;;;2.25;69.68
31911;BME280;18457;52.432;16.914;2023-04-05T04:36:18;101061.86;;;2.30;69.05
31911;BME280;18457;52.432;16.914;2023-04-05T04:39:22;101060.85;;;2.33;68.83
31911;BME280;18457;52.432;16.914;2023-04-05T04:42:15;101062.70;;;2.36;68.99
31911;BME280;18457;52.432;16.914;2023-04-05T04:45:10;101061.70;;;2.40;69.27
31911;BME280;18457;52.432;16.914;2023-04-05T04:48:06;101070.08;;;2.31;70.65
31911;BME280;18457;52.432;16.914;2023-04-05T04:50:53;101069.23;;;2.07;72.23
31911;BME280;18457;52.432;16.914;2023-04-05T04:53:26;101073.11;;;2.05;72.45
31911;BME280;18457;52.432;16.914;2023-04-05T04:55:59;101075.49;;;1.92;73.44
31911;BME280;18457;52.432;16.914;2023-04-05T04:58:29;101074.73;;;1.90;73.48
31911;BME280;18457;52.432;16.914;2023-04-05T05:01:09;101072.48;;;1.76;74.34
31911;BME280;18457;52.432;16.914;2023-04-05T05:03:41;101069.48;;;1.78;73.80
31911;BME280;18457;52.432;16.914;2023-04-05T05:06:16;101067.16;;;1.77;73.96
31911;BME280;18457;52.432;16.914;2023-04-05T05:08:49;101070.73;;;1.77;73.98
31911;BME280;18457;52.432;16.914;2023-04-05T05:11:20;101068.67;;;1.81;73.87
31911;BME280;18457;52.432;16.914;2023-04-05T05:13:52;101067.57;;;1.72;73.92
31911;BME280;18457;52.432;16.914;2023-04-05T05:16:26;101067.46;;;1.74;73.67
31911;BME280;18457;52.432;16.914;2023-04-05T05:18:59;101069.04;;;1.73;73.67
31911;BME280;18457;52.432;16.914;2023-04-05T05:21:40;101070.13;;;1.90;72.90
31911;BME280;18457;52.432;16.914;2023-04-05T05:24:12;101074.00;;;1.97;72.94
31911;BME280;18457;52.432;16.914;2023-04-05T05:26:44;101071.72;;;1.90;73.18
31911;BME280;18457;52.432;16.914;2023-04-05T05:29:16;101071.81;;;1.78;73.33
31911;BME280;18457;52.432;16.914;2023-04-05T05:31:49;101068.80;;;1.79;74.03
31911;BME280;18457;52.432;16.914;2023-04-05T05:34:22;101071.56;;;1.91;73.17
31911;BME280;18457;52.432;16.914;2023-04-05T05:37:08;101067.96;;;2.06;73.23
31911;BME280;18457;52.432;16.914;2023-04-05T05:40:02;101068.13;;;2.06;73.36
31911;BME280;18457;52.432;16.914;2023-04-05T05:42:40;101074.08;;;2.08;73.22
31911;BME280;18457;52.432;16.914;2023-04-05T05:45:12;101069.75;;;2.16;72.54
31911;BME280;18457;52.432;16.914;2023-04-05T05:47:45;101071.98;;;2.27;72.13
31911;BME280;18457;52.432;16.914;2023-04-05T05:50:17;101068.58;;;2.27;72.16
31911;BME280;18457;52.432;16.914;2023-04-05T05:52:50;101065.73;;;2.36;72.16
31911;BME280;18457;52.432;16.914;2023-04-05T05:55:22;101063.51;;;2.41;71.87
31911;BME280;18457;52.432;16.914;2023-04-05T05:57:54;101064.36;;;2.39;72.43
31911;BME280;18457;52.432;16.914;2023-04-05T06:00:27;101065.98;;;2.32;72.87
31911;BME280;18457;52.432;16.914;2023-04-05T06:02:59;101068.88;;;2.25;73.03
31911;BME280;18457;52.432;16.914;2023-04-05T06:05:31;101069.41;;;2.33;73.14
31911;BME280;18457;52.432;16.914;2023-04-05T06:08:03;101064.39;;;2.41;72.93
31911;BME280;18457;52.432;16.914;2023-04-05T06:10:37;101066.25;;;2.44;72.97
31911;BME280;18457;52.432;16.914;2023-04-05T06:13:09;101071.60;;;2.36;73.01
31911;BME280;18457;52.432;16.914;2023-04-05T06:15:42;101067.67;;;2.35;73.60
31911;BME280;18457;52.432;16.914;2023-04-05T06:18:14;101070.54;;;2.36;73.46
31911;BME280;18457;52.432;16.914;2023-04-05T06:20:46;101067.64;;;2.42;73.68
31911;BME280;18457;52.432;16.914;2023-04-05T06:23:18;101064.50;;;2.46;73.40
31911;BME280;18457;52.432;16.914;2023-04-05T06:25:50;101064.64;;;2.53;73.21
31911;BME280;18457;52.432;16.914;2023-04-05T06:28:22;101062.44;;;2.60;72.89
31911;BME280;18457;52.432;16.914;2023-04-05T06:30:56;101065.36;;;2.63;73.02
31911;BME280;18457;52.432;16.914;2023-04-05T06:33:29;101067.09;;;2.60;72.81
31911;BME280;18457;52.432;16.914;2023-04-05T06:36:01;101068.10;;;2.68;72.69
31911;BME280;18457;52.432;16.914;2023-04-05T06:38:33;101070.42;;;2.68;73.06
31911;BME280;18457;52.432;16.914;2023-04-05T06:41:04;101069.85;;;2.65;73.57
31911;BME280;18457;52.432;16.914;2023-04-05T06:43:36;101070.39;;;2.75;73.04
31911;BME280;18457;52.432;16.914;2023-04-05T06:46:08;101064.52;;;2.76;72.84
31911;BME280;18457;52.432;16.914;2023-04-05T06:48:42;101072.20;;;2.76;72.62
31911;BME280;18457;52.432;16.914;2023-04-05T06:51:14;101065.92;;;2.75;72.44
31911;BME280;18457;52.432;16.914;2023-04-05T06:53:46;101065.34;;;2.62;72.09
31911;BME280;18457;52.432;16.914;2023-04-05T06:56:18;101066.11;;;2.65;72.49
31911;BME280;18457;52.432;16.914;2023-04-05T06:58:51;101062.44;;;2.70;71.59
31911;BME280;18457;52.432;16.914;2023-04-05T07:01:25;101065.83;;;2.80;70.77
31911;BME280;18457;52.432;16.914;2023-04-05T07:03:57;101061.30;;;2.75;70.75
31911;BME280;18457;52.432;16.914;2023-04-05T07:06:30;101057.91;;;2.76;71.09
31911;BME280;18457;52.432;16.914;2023-04-05T07:09:04;101056.16;;;2.78;71.26
31911;BME280;18457;52.432;16.914;2023-04-05T07:11:36;101064.16;;;2.87;71.31
31911;BME280;18457;52.432;16.914;2023-04-05T07:14:09;101057.17;;;2.94;72.01
31911;BME280;18457;52.432;16.914;2023-04-05T07:16:41;101048.54;;;3.11;72.22
31911;BME280;18457;52.432;16.914;2023-04-05T07:19:13;101054.25;;;3.23;71.96
31911;BME280;18457;52.432;16.914;2023-04-05T07:21:45;101056.48;;;3.28;71.84
31911;BME280;18457;52.432;16.914;2023-04-05T07:24:17;101055.20;;;3.37;71.10
31911;BME280;18457;52.432;16.914;2023-04-05T07:26:49;101057.58;;;3.41;70.45
31911;BME280;18457;52.432;16.914;2023-04-05T07:29:21;101057.14;;;3.48;69.94
31911;BME280;18457;52.432;16.914;2023-04-05T07:31:53;101059.80;;;3.46;70.12
31911;BME280;18457;52.432;16.914;2023-04-05T07:34:25;101057.71;;;3.50;69.86
31911;BME280;18457;52.432;16.914;2023-04-05T07:36:58;101056.41;;;3.58;69.53
31911;BME280;18457;52.432;16.914;2023-04-05T07:39:30;101060.51;;;3.70;69.42
31911;BME280;18457;52.432;16.914;2023-04-05T07:42:02;101061.23;;;3.83;69.36
31911;BME280;18457;52.432;16.914;2023-04-05T07:44:34;101061.02;;;3.81;68.20
31911;BME280;18457;52.432;16.914;2023-04-05T07:47:09;101059.84;;;3.86;68.14
31911;BME280;18457;52.432;16.914;2023-04-05T07:49:41;101056.33;;;4.05;67.88
31911;BME280;18457;52.432;16.914;2023-04-05T07:52:14;101058.55;;;4.12;67.28
31911;BME280;18457;52.432;16.914;2023-04-05T07:54:46;101059.44;;;4.24;66.82
31911;BME280;18457;52.432;16.914;2023-04-05T07:57:18;101053.54;;;4.40;66.91
31911;BME280;18457;52.432;16.914;2023-04-05T07:59:51;101060.36;;;4.42;66.36
31911;BME280;18457;52.432;16.914;2023-04-05T08:02:24;101059.49;;;4.44;65.87
31911;BME280;18457;52.432;16.914;2023-04-05T08:04:56;101059.22;;;4.35;64.96
31911;BME280;18457;52.432;16.914;2023-04-05T08:07:29;101063.52;;;4.53;65.05
31911;BME280;18457;52.432;16.914;2023-04-05T08:10:01;101065.52;;;4.55;65.26
31911;BME280;18457;52.432;16.914;2023-04-05T08:12:34;101063.42;;;4.61;65.17
31911;BME280;18457;52.432;16.914;2023-04-05T08:15:09;101065.96;;;4.64;65.28
31911;BME280;18457;52.432;16.914;2023-04-05T08:17:42;101060.86;;;4.72;64.92
31911;BME280;18457;52.432;16.914;2023-04-05T08:20:14;101066.09;;;4.77;64.23
31911;BME280;18457;52.432;16.914;2023-04-05T08:22:47;101062.39;;;4.82;63.78
31911;BME280;18457;52.432;16.914;2023-04-05T08:25:20;101066.73;;;4.87;63.56
31911;BME280;18457;52.432;16.914;2023-04-05T08:27:52;101070.18;;;4.74;63.20
31911;BME280;18457;52.432;16.914;2023-04-05T08:30:24;101069.08;;;4.71;62.98
31911;BME280;18457;52.432;16.914;2023-04-05T08:32:56;101064.91;;;4.65;63.00
31911;BME280;18457;52.432;16.914;2023-04-05T08:35:28;101066.84;;;4.79;63.26
31911;BME280;18457;52.432;16.914;2023-04-05T08:38:00;101060.67;;;4.89;63.52
31911;BME280;18457;52.432;16.914;2023-04-05T08:40:38;101059.90;;;5.02;63.34
31911;BME280;18457;52.432;16.914;2023-04-05T08:43:17;101060.77;;;4.81;62.91
31911;BME280;18457;52.432;16.914;2023-04-05T08:45:51;101061.19;;;4.87;62.97
31911;BME280;18457;52.432;16.914;2023-04-05T08:48:23;101059.20;;;5.05;63.28
31911;BME280;18457;52.432;16.914;2023-04-05T08:50:58;101062.39;;;5.21;62.72
31911;BME280;18457;52.432;16.914;2023-04-05T08:53:30;101058.57;;;5.36;61.05
31911;BME280;18457;52.432;16.914;2023-04-05T08:56:05;101060.36;;;5.37;59.86
31911;BME280;18457;52.432;16.914;2023-04-05T08:58:38;101059.56;;;5.49;59.49
31911;BME280;18457;52.432;16.914;2023-04-05T09:01:11;101058.23;;;5.67;59.78
31911;BME280;18457;52.432;16.914;2023-04-05T09:03:43;101060.13;;;5.81;59.58
31911;BME280;18457;52.432;16.914;2023-04-05T09:06:17;101059.84;;;5.90;58.82
31911;BME280;18457;52.432;16.914;2023-04-05T09:08:51;101064.05;;;6.03;57.50
31911;BME280;18457;52.432;16.914;2023-04-05T09:11:24;101065.50;;;6.06;57.70
31911;BME280;18457;52.432;16.914;2023-04-05T09:13:56;101064.10;;;6.11;58.11
31911;BME280;18457;52.432;16.914;2023-04-05T09:16:28;101063.04;;;5.87;57.11
31911;BME280;18457;52.432;16.914;2023-04-05T09:19:00;101066.91;;;5.76;56.65
31911;BME280;18457;52.432;16.914;2023-04-05T09:22:01;101065.65;;;5.77;56.28
31911;BME280;18457;52.432;16.914;2023-04-05T09:24:37;101065.77;;;5.91;56.80
31911;BME280;18457;52.432;16.914;2023-04-05T09:27:15;101063.77;;;5.89;56.24
31911;BME280;18457;52.432;16.914;2023-04-05T09:29:51;101068.73;;;5.81;55.58
31911;BME280;18457;52.432;16.914;2023-04-05T09:32:25;101065.09;;;5.75;56.16
31911;BME280;18457;52.432;16.914;2023-04-05T09:35:00;101068.64;;;5.67;57.21
31911;BME280;18457;52.432;16.914;2023-04-05T09:37:37;101067.23;;;5.69;55.99
31911;BME280;18457;52.432;16.914;2023-04-05T09:40:23;101067.08;;;5.75;54.61
31911;BME280;18457;52.432;16.914;2023-04-05T09:42:55;101070.11;;;5.73;55.64
31911;BME280;18457;52.432;16.914;2023-04-05T09:45:29;101067.94;;;5.70;55.65
31911;BME280;18457;52.432;16.914;2023-04-05T09:48:01;101067.80;;;5.75;55.63
31911;BME280;18457;52.432;16.914;2023-04-05T09:50:34;101071.79;;;5.82;55.57
31911;BME280;18457;52.432;16.914;2023-04-05T09:53:11;101069.21;;;5.73;55.81
31911;BME280;18457;52.432;16.914;2023-04-05T09:55:46;101071.86;;;5.69;55.39
31911;BME280;18457;52.432;16.914;2023-04-05T09:58:21;101072.19;;;5.87;54.34
31911;BME280;18457;52.432;16.914;2023-04-05T10:00:53;101071.46;;;6.17;53.74
31911;BME280;18457;52.432;16.914;2023-04-05T10:03:48;101072.25;;;6.38;53.44
31911;BME280;18457;52.432;16.914;2023-04-05T10:06:21;101068.73;;;6.58;52.48
31911;BME280;18457;52.432;16.914;2023-04-05T10:08:53;101072.83;;;6.46;51.80
31911;BME280;18457;52.432;16.914;2023-04-05T10:11:25;101073.45;;;6.24;50.89
31911;BME280;18457;52.432;16.914;2023-04-05T10:14:01;101069.98;;;6.11;51.05
31911;BME280;18457;52.432;16.914;2023-04-05T10:16:37;101071.20;;;5.99;51.54
31911;BME280;18457;52.432;16.914;2023-04-05T10:19:15;101068.82;;;5.89;51.69
31911;BME280;18457;52.432;16.914;2023-04-05T10:21:48;101069.77;;;6.01;51.91
31911;BME280;18457;52.432;16.914;2023-04-05T10:24:31;101067.80;;;6.01;51.40
31911;BME280;18457;52.432;16.914;2023-04-05T10:27:10;101067.37;;;5.89;50.32
31911;BME280;18457;52.432;16.914;2023-04-05T10:29:52;101067.70;;;5.85;49.89
31911;BME280;18457;52.432;16.914;2023-04-05T10:32:33;101058.44;;;5.95;50.36
31911;BME280;18457;52.432;16.914;2023-04-05T10:35:09;101059.73;;;6.03;50.71
31911;BME280;18457;52.432;16.914;2023-04-05T10:37:50;101059.02;;;6.02;51.94
31911;BME280;18457;52.432;16.914;2023-04-05T10:40:24;101059.33;;;5.93;51.40
31911;BME280;18457;52.432;16.914;2023-04-05T10:43:00;101056.45;;;5.92;50.91
31911;BME280;18457;52.432;16.914;2023-04-05T10:45:34;101055.70;;;5.87;50.43
31911;BME280;18457;52.432;16.914;2023-04-05T10:48:17;101052.14;;;5.90;50.68
31911;BME280;18457;52.432;16.914;2023-04-05T10:50:54;101057.48;;;5.84;50.18
31911;BME280;18457;52.432;16.914;2023-04-05T10:53:27;101054.28;;;5.88;50.55
31911;BME280;18457;52.432;16.914;2023-04-05T10:56:01;101059.70;;;5.96;50.90
31911;BME280;18457;52.432;16.914;2023-04-05T10:58:34;101057.48;;;5.85;49.96
31911;BME280;18457;52.432;16.914;2023-04-05T11:01:12;101061.44;;;5.85;50.04
31911;BME280;18457;52.432;16.914;2023-04-05T11:03:48;101054.58;;;5.81;50.18
31911;BME280;18457;52.432;16.914;2023-04-05T11:06:23;101051.90;;;5.82;50.44
31911;BME280;18457;52.432;16.914;2023-04-05T11:09:08;101050.33;;;5.89;50.43
31911;BME280;18457;52.432;16.914;2023-04-05T11:11:42;101050.41;;;6.02;50.18
31911;BME280;18457;52.432;16.914;2023-04-05T11:14:22;101056.30;;;5.97;49.06
31911;BME280;18457;52.432;16.914;2023-04-05T11:16:56;101054.12;;;5.91;48.58
31911;BME280;18457;52.432;16.914;2023-04-05T11:19:48;101050.02;;;5.95;48.40
31911;BME280;18457;52.432;16.914;2023-04-05T11:22:29;101042.75;;;6.14;47.25
31911;BME280;18457;52.432;16.914;2023-04-05T11:25:02;101047.94;;;6.10;46.90
31911;BME280;18457;52.432;16.914;2023-04-05T11:27:33;101048.09;;;6.07;47.23
31911;BME280;18457;52.432;16.914;2023-04-05T11:30:08;101044.54;;;6.12;47.61
31911;BME280;18457;52.432;16.914;2023-04-05T11:32:42;101043.87;;;6.28;47.68
31911;BME280;18457;52.432;16.914;2023-04-05T11:35:15;101045.13;;;6.30;48.43
31911;BME280;18457;52.432;16.914;2023-04-05T11:38:06;101049.96;;;6.24;48.08
31911;BME280;18457;52.432;16.914;2023-04-05T11:40:39;101046.56;;;6.29;48.13
31911;BME280;18457;52.432;16.914;2023-04-05T11:43:13;101047.33;;;6.39;47.35
31911;BME280;18457;52.432;16.914;2023-04-05T11:45:46;101049.30;;;6.43;47.35
31911;BME280;18457;52.432;16.914;2023-04-05T11:48:19;101049.71;;;6.60;46.89
31911;BME280;18457;52.432;16.914;2023-04-05T11:50:54;101051.02;;;6.83;46.27
31911;BME280;18457;52.432;16.914;2023-04-05T11:53:27;101046.17;;;7.21;46.27
31911;BME280;18457;52.432;16.914;2023-04-05T11:56:07;101038.77;;;7.68;45.09
31911;BME280;18457;52.432;16.914;2023-04-05T11:58:40;101041.42;;;7.89;43.37
31911;BME280;18457;52.432;16.914;2023-04-05T12:01:12;101043.70;;;8.03;43.22
31911;BME280;18457;52.432;16.914;2023-04-05T12:03:44;101043.42;;;8.35;43.44
31911;BME280;18457;52.432;16.914;2023-04-05T12:06:24;101042.47;;;8.45;42.89
31911;BME280;18457;52.432;16.914;2023-04-05T12:08:56;101040.82;;;8.52;42.19
31911;BME280;18457;52.432;16.914;2023-04-05T12:11:29;101037.20;;;8.81;43.33
31911;BME280;18457;52.432;16.914;2023-04-05T12:14:02;101040.07;;;9.10;43.32
31911;BME280;18457;52.432;16.914;2023-04-05T12:16:34;101038.82;;;9.08;41.98
31911;BME280;18457;52.432;16.914;2023-04-05T12:19:06;101038.41;;;9.16;42.21
31911;BME280;18457;52.432;16.914;2023-04-05T12:21:38;101036.25;;;9.12;41.07
31911;BME280;18457;52.432;16.914;2023-04-05T12:24:11;101028.05;;;9.03;40.05
31911;BME280;18457;52.432;16.914;2023-04-05T12:26:43;101032.85;;;8.87;39.23
31911;BME280;18457;52.432;16.914;2023-04-05T12:29:22;101027.56;;;8.72;39.42
31911;BME280;18457;52.432;16.914;2023-04-05T12:31:55;101022.50;;;8.43;39.12
31911;BME280;18457;52.432;16.914;2023-04-05T12:34:27;101020.83;;;8.10;40.20
31911;BME280;18457;52.432;16.914;2023-04-05T12:37:00;101017.54;;;8.24;41.77
31911;BME280;18457;52.432;16.914;2023-04-05T12:39:33;101017.70;;;8.32;41.17
31911;BME280;18457;52.432;16.914;2023-04-05T12:42:05;101017.29;;;8.40;41.71
31911;BME280;18457;52.432;16.914;2023-04-05T12:44:37;101014.98;;;8.34;41.27
31911;BME280;18457;52.432;16.914;2023-04-05T12:47:09;101016.64;;;8.26;41.60
31911;BME280;18457;52.432;16.914;2023-04-05T12:49:42;101017.55;;;8.22;41.30
31911;BME280;18457;52.432;16.914;2023-04-05T12:52:19;101015.23;;;8.12;40.43
31911;BME280;18457;52.432;16.914;2023-04-05T12:54:55;101007.85;;;8.15;41.27
31911;BME280;18457;52.432;16.914;2023-04-05T12:57:31;101011.38;;;8.35;41.41
31911;BME280;18457;52.432;16.914;2023-04-05T13:00:04;101003.53;;;8.54;40.82
31911;BME280;18457;52.432;16.914;2023-04-05T13:02:36;101009.77;;;8.63;40.20
31911;BME280;18457;52.432;16.914;2023-04-05T13:05:10;101011.92;;;8.64;40.67
31911;BME280;18457;52.432;16.914;2023-04-05T13:07:40;101015.27;;;8.51;40.32
31911;BME280;18457;52.432;16.914;2023-04-05T13:10:12;101014.04;;;8.42;40.84
31911;BME280;18457;52.432;16.914;2023-04-05T13:12:44;101017.91;;;8.21;40.63
31911;BME280;18457;52.432;16.914;2023-04-05T13:15:17;101012.45;;;8.34;41.09
31911;BME280;18457;52.432;16.914;2023-04-05T13:17:49;101010.53;;;8.57;40.45
31911;BME280;18457;52.432;16.914;2023-04-05T13:20:23;101010.64;;;8.70;39.09
31911;BME280;18457;52.432;16.914;2023-04-05T13:22:55;101011.41;;;8.85;39.11
31911;BME280;18457;52.432;16.914;2023-04-05T13:25:27;101010.13;;;9.12;40.06
31911;BME280;18457;52.432;16.914;2023-04-05T13:27:59;101009.05;;;9.12;38.03
31911;BME280;18457;52.432;16.914;2023-04-05T13:30:31;101008.48;;;9.16;37.52